Pagrindinis puslapis
METAR-TAF:

METAR-TAF

Oro uostai :

Paros, Graikija

platuma: 37-01-15N, ilguma: 025-06-46E, Aukštis: 38 m

Dabartinis oras

Ataskaita buvo paskelbta 18 minutes, ne 20:20 UTC
Vėjas 6 kt iš Rytų/Šiaurės Rytų
Temperatūra 13°C
Drėgmė 82%
Slėgis 1023 hPa

METAR: LGPA 152020Z AUTO 07006KT //// // ////// 13/10 Q1023 RE//

Laikas: 22:38 (20:38 UTC)


TAF: trūkstamas

Orai ataskaitas ir orų prognozės (METAR, TAF).

turimą stotys yra geltonos ir raudonos taškus žemėlapyje.

Perkelti pele per norėdami pamatyti stoties vardą.

Tada spustelėkite, norėdami matyti oro stebėjimo ir prognozės.

Norėdami pakeisti žemėlapį: spustelėkite ant žalios mygtukų su juodo kryžiaus žemyn,; žalią mygtuką su brūkšneliu, jei norite nutolinti; arba žalių rodyklių gretimoms žemėlapius.


METAR-TAF: